Time;durP1;ratioP1;P1;durP2;ratioP2;P2;SDS_P1;SDS_P2;PMS_P1;PMS_P2;Temp;Humidity;BMP_temperature;BMP_pressure;BME280_temperature;BME280_humidity;BME280_pressure;Samples;Min_cycle;Max_cycle;Signal;HPM_P1;HPM_P2
2023/05/26 00:00:15;;;;;;;9.30;7.87;;;;;;;15.39;56.29;96745.13;5026650;28;20179;-70
2023/05/26 00:02:41;;;;;;;10.83;7.77;;;;;;;15.47;55.60;96756.09;5029785;28;20413;-70
2023/05/26 00:05:07;;;;;;;10.10;8.10;;;;;;;15.53;55.76;96749.63;5029649;28;20168;-71
2023/05/26 00:07:33;;;;;;;11.20;8.77;;;;;;;15.49;55.74;96754.22;5030274;28;20689;-69
2023/05/26 00:09:59;;;;;;;8.93;8.03;;;;;;;15.48;55.76;96752.53;5030067;28;20402;-70
2023/05/26 00:12:24;;;;;;;9.43;8.43;;;;;;;15.50;55.75;96749.81;5030188;28;20468;-70
2023/05/26 00:14:50;;;;;;;13.47;7.97;;;;;;;15.41;55.88;96752.03;5029951;28;20172;-70
2023/05/26 00:17:16;;;;;;;11.83;8.77;;;;;;;15.26;56.59;96747.63;5029889;28;20203;-70
2023/05/26 00:19:45;;;;;;;17.67;7.93;;;;;;;15.14;56.43;96745.66;5030094;28;20206;-70
2023/05/26 00:22:14;;;;;;;13.50;7.73;;;;;;;15.28;56.17;96751.03;5029971;28;20404;-69
2023/05/26 00:24:39;;;;;;;10.73;8.50;;;;;;;15.19;55.82;96739.19;5031867;28;20418;-71
2023/05/26 00:27:05;;;;;;;15.17;8.67;;;;;;;15.19;56.22;96755.06;5029624;28;20418;-70
2023/05/26 00:29:30;;;;;;;11.33;8.10;;;;;;;15.21;55.53;96750.53;5029641;28;20175;-69
2023/05/26 00:31:56;;;;;;;10.90;8.70;;;;;;;15.11;55.93;96751.13;5029529;28;20183;-70
2023/05/26 00:34:22;;;;;;;12.70;8.90;;;;;;;15.14;55.90;96743.91;5029331;28;20179;-71
2023/05/26 00:36:47;;;;;;;12.30;8.33;;;;;;;15.20;55.67;96743.53;5029574;28;20422;-70
2023/05/26 00:39:13;;;;;;;9.90;7.90;;;;;;;15.08;55.88;96743.38;5029680;28;20549;-70
2023/05/26 00:41:38;;;;;;;11.60;8.77;;;;;;;15.18;55.92;96744.56;5029514;28;20176;-71
2023/05/26 00:44:03;;;;;;;9.47;8.23;;;;;;;15.09;55.83;96751.22;5028941;28;20190;-70
2023/05/26 00:46:30;;;;;;;10.13;8.60;;;;;;;15.13;55.86;96751.91;5029080;28;20253;-70
2023/05/26 00:48:55;;;;;;;9.60;8.50;;;;;;;15.17;55.40;96748.16;5023849;28;20771;-69
2023/05/26 00:51:22;;;;;;;12.40;9.47;;;;;;;15.16;55.49;96742.00;5009434;28;20411;-70
2023/05/26 00:53:48;;;;;;;11.57;8.37;;;;;;;15.21;55.32;96745.25;5009149;28;20238;-70
2023/05/26 00:56:15;;;;;;;10.73;8.90;;;;;;;15.13;55.61;96744.81;5009383;28;20513;-70
2023/05/26 00:58:42;;;;;;;13.27;9.00;;;;;;;15.15;55.72;96737.66;5009309;28;20557;-70
2023/05/26 01:01:08;;;;;;;14.13;9.17;;;;;;;14.99;56.31;96740.31;5009213;28;20477;-70
2023/05/26 01:03:35;;;;;;;11.40;8.47;;;;;;;15.06;56.20;96735.53;5008799;28;20415;-71
2023/05/26 01:06:00;;;;;;;11.03;8.40;;;;;;;14.95;56.13;96733.50;5009056;28;20192;-70
2023/05/26 01:08:26;;;;;;;9.30;8.40;;;;;;;14.88;55.97;96732.16;5009189;28;20414;-70
2023/05/26 01:10:58;;;;;;;12.53;8.50;;;;;;;14.94;55.86;96737.06;5008996;28;20176;-70
2023/05/26 01:13:29;;;;;;;10.40;7.47;;;;;;;14.96;55.96;96727.28;5007973;28;20229;-70
2023/05/26 01:16:02;;;;;;;20.10;9.03;;;;;;;14.97;55.78;96728.97;5008779;28;20480;-68
2023/05/26 01:18:37;;;;;;;9.40;8.50;;;;;;;15.00;55.63;96726.19;5008780;28;20454;-69
2023/05/26 01:21:08;;;;;;;10.50;8.80;;;;;;;14.98;55.64;96727.19;5009142;28;20520;-70
2023/05/26 01:23:56;;;;;;;33.27;9.63;;;;;;;15.00;55.52;96730.59;5025361;28;20502;-71
2023/05/26 01:26:25;;;;;;;11.20;8.13;;;;;;;14.89;55.08;96728.56;5027083;28;20489;-70
2023/05/26 01:28:55;;;;;;;20.77;8.43;;;;;;;14.75;55.07;96731.13;5022685;28;20461;-69
2023/05/26 01:31:20;;;;;;;8.90;7.60;;;;;;;14.74;55.18;96737.31;5018588;28;20530;-70
2023/05/26 01:33:46;;;;;;;14.93;9.60;;;;;;;14.56;55.81;96742.69;5011608;28;20788;-70
2023/05/26 01:36:11;;;;;;;9.50;8.07;;;;;;;14.61;56.06;96748.56;5009284;28;20275;-70
2023/05/26 01:38:39;;;;;;;11.83;8.30;;;;;;;14.76;55.28;96746.03;5008746;28;20203;-69
2023/05/26 01:42:01;;;;;;;17.40;9.20;;;;;;;14.58;55.88;96750.53;5008674;28;20176;-69
2023/05/26 01:44:31;;;;;;;12.50;8.53;;;;;;;14.63;55.84;96753.78;5024687;28;20422;-69
2023/05/26 01:46:57;;;;;;;11.23;8.17;;;;;;;14.42;55.93;96750.47;5025053;28;20505;-70
2023/05/26 01:49:28;;;;;;;11.50;8.07;;;;;;;14.45;56.05;96758.22;5025151;28;20434;-70
2023/05/26 01:52:08;;;;;;;11.67;8.10;;;;;;;14.51;56.01;96757.06;5025148;28;20589;-70
2023/05/26 01:54:39;;;;;;;14.03;8.90;;;;;;;14.60;55.71;96759.22;5024820;28;20481;-68
2023/05/26 01:57:07;;;;;;;9.27;8.20;;;;;;;14.51;55.81;96764.97;5024937;28;20569;-70
2023/05/26 01:59:33;;;;;;;16.40;8.27;;;;;;;14.37;56.68;96763.91;5025228;28;20827;-70
2023/05/26 02:01:58;;;;;;;9.80;7.57;;;;;;;14.44;56.32;96755.69;5025070;28;20414;-71
2023/05/26 02:04:24;;;;;;;11.73;8.17;;;;;;;14.58;55.70;96756.66;5024714;28;20575;-69
2023/05/26 02:06:51;;;;;;;15.40;9.27;;;;;;;14.42;56.16;96754.91;5024884;28;20629;-70
2023/05/26 02:09:17;;;;;;;9.63;8.43;;;;;;;14.39;55.75;96762.03;5025154;28;20734;-69
2023/05/26 02:11:42;;;;;;;13.10;8.50;;;;;;;14.37;56.24;96760.44;5024951;28;20410;-69
2023/05/26 02:14:07;;;;;;;12.80;8.27;;;;;;;14.44;55.64;96756.53;5021530;28;20532;-70
2023/05/26 02:16:33;;;;;;;13.10;9.33;;;;;;;14.45;55.64;96749.44;5007753;28;20220;-69
2023/05/26 02:18:58;;;;;;;9.87;8.13;;;;;;;14.37;55.77;96756.00;5007839;28;20987;-69
2023/05/26 02:21:24;;;;;;;11.70;7.73;;;;;;;14.32;56.16;96762.47;5012435;28;20174;-71
2023/05/26 02:23:49;;;;;;;10.67;8.70;;;;;;;14.31;56.08;96756.31;5007429;28;20194;-70
2023/05/26 02:26:15;;;;;;;11.97;8.50;;;;;;;14.30;56.02;96754.63;5007624;28;20216;-70
2023/05/26 02:28:41;;;;;;;10.17;7.47;;;;;;;14.21;56.44;96762.16;5007889;28;20164;-69
2023/05/26 02:31:06;;;;;;;10.70;7.80;;;;;;;14.22;56.15;96763.88;5007453;28;20586;-70
2023/05/26 02:33:32;;;;;;;10.23;9.07;;;;;;;14.26;56.41;96754.84;5007305;28;20618;-70
2023/05/26 02:35:57;;;;;;;16.67;8.60;;;;;;;14.30;56.21;96756.41;5007415;28;20192;-70
2023/05/26 02:38:23;;;;;;;14.60;8.20;;;;;;;14.19;56.45;96759.59;5007377;28;20220;-70
2023/05/26 02:40:49;;;;;;;10.97;8.77;;;;;;;14.20;56.27;96753.41;5007594;28;20168;-69
2023/05/26 02:43:15;;;;;;;10.37;8.57;;;;;;;14.10;56.72;96755.69;5007384;28;20191;-70
2023/05/26 02:45:41;;;;;;;14.80;9.93;;;;;;;14.12;56.81;96759.06;5007045;28;20531;-70
2023/05/26 02:48:06;;;;;;;10.43;8.83;;;;;;;14.10;56.77;96755.69;5012508;28;20603;-71
2023/05/26 02:50:32;;;;;;;20.57;9.23;;;;;;;14.11;56.80;96765.28;5018891;28;20180;-70
2023/05/26 02:52:57;;;;;;;11.10;8.87;;;;;;;14.09;57.45;96764.50;5007194;28;20176;-71
2023/05/26 02:55:24;;;;;;;16.20;8.93;;;;;;;14.06;57.01;96764.69;5026017;28;20221;-70
2023/05/26 02:57:51;;;;;;;11.37;9.20;;;;;;;14.06;57.27;96769.13;5015761;28;20231;-71
2023/05/26 03:00:17;;;;;;;16.40;8.60;;;;;;;14.00;57.46;96764.13;5008349;28;20412;-70
2023/05/26 03:02:43;;;;;;;12.67;8.33;;;;;;;13.87;57.51;96777.13;5022775;28;20418;-69
2023/05/26 03:05:08;;;;;;;17.10;10.30;;;;;;;14.04;56.69;96763.91;5017851;28;20418;-69
2023/05/26 03:07:34;;;;;;;17.33;8.53;;;;;;;14.05;57.24;96770.88;5015126;28;20185;-70
2023/05/26 03:09:59;;;;;;;15.03;9.50;;;;;;;13.86;57.78;96773.59;5018689;28;20171;-70
2023/05/26 03:12:24;;;;;;;16.60;8.40;;;;;;;13.83;57.65;96767.66;5027011;28;20182;-70
2023/05/26 03:14:50;;;;;;;12.10;9.30;;;;;;;13.82;57.98;96761.53;5026725;28;20179;-70
2023/05/26 03:17:19;;;;;;;14.87;9.37;;;;;;;13.75;58.73;96758.34;5026767;28;20206;-71
2023/05/26 03:19:45;;;;;;;75.10;55.77;;;;;;;13.80;58.37;96759.91;5017940;28;20202;-71
2023/05/26 03:22:10;;;;;;;26.43;17.97;;;;;;;13.72;58.52;96761.16;5008476;28;20987;-70
2023/05/26 03:24:36;;;;;;;13.00;10.40;;;;;;;13.63;58.50;96753.69;5014902;28;20914;-70
2023/05/26 03:27:02;;;;;;;20.93;10.67;;;;;;;13.72;58.34;96755.88;5026864;28;20201;-69
2023/05/26 03:29:29;;;;;;;14.10;9.23;;;;;;;13.46;59.53;96753.66;5026562;28;20175;-70
2023/05/26 03:31:54;;;;;;;16.90;9.83;;;;;;;13.54;59.40;96754.16;5026617;28;20545;-69
2023/05/26 03:34:21;;;;;;;17.90;10.10;;;;;;;13.65;58.22;96762.34;5026385;28;20492;-71
2023/05/26 03:36:49;;;;;;;11.47;8.80;;;;;;;13.60;58.92;96756.47;5028669;28;20199;-71
2023/05/26 03:39:15;;;;;;;13.30;9.53;;;;;;;13.54;59.19;96762.91;5030721;28;20475;-69
2023/05/26 03:41:40;;;;;;;16.10;9.90;;;;;;;13.76;58.72;96770.59;5030864;28;20544;-70
2023/05/26 03:44:06;;;;;;;15.10;10.17;;;;;;;13.72;58.67;96765.53;5030262;28;20546;-71
2023/05/26 03:46:32;;;;;;;28.63;10.60;;;;;;;13.91;58.20;96770.72;5030051;28;20199;-69
2023/05/26 03:48:57;;;;;;;37.10;11.53;;;;;;;13.85;58.13;96769.28;5024522;28;20545;-70
2023/05/26 03:51:23;;;;;;;19.77;11.03;;;;;;;13.91;58.16;96770.72;5010489;28;20176;-71
2023/05/26 03:53:48;;;;;;;22.03;9.73;;;;;;;14.01;58.15;96772.00;5010381;28;20783;-71
2023/05/26 03:56:14;;;;;;;15.40;10.60;;;;;;;14.06;57.63;96769.97;5010168;28;20204;-71
2023/05/26 03:58:39;;;;;;;12.90;9.63;;;;;;;14.19;56.85;96768.38;5010323;28;20204;-71
2023/05/26 04:01:05;;;;;;;12.93;9.70;;;;;;;14.11;57.07;96773.22;5010365;28;20176;-71
2023/05/26 04:03:31;;;;;;;15.13;9.20;;;;;;;14.17;57.45;96777.31;5009989;28;20635;-70
2023/05/26 04:05:59;;;;;;;15.00;9.13;;;;;;;14.41;56.35;96772.53;5010135;28;20192;-71
2023/05/26 04:08:25;;;;;;;14.33;9.90;;;;;;;14.47;56.29;96782.75;5010316;28;20247;-69
2023/05/26 04:10:51;;;;;;;14.30;9.63;;;;;;;14.58;56.07;96777.78;5010279;28;21061;-70
2023/05/26 04:13:16;;;;;;;15.80;9.43;;;;;;;14.79;55.37;96781.06;5010163;28;20430;-70
2023/05/26 04:15:42;;;;;;;17.97;9.90;;;;;;;14.72;55.26;96782.34;5010303;28;20200;-71
2023/05/26 04:18:07;;;;;;;24.27;10.80;;;;;;;14.23;57.00;96786.72;5010087;28;20303;-70
2023/05/26 04:20:32;;;;;;;21.37;9.97;;;;;;;14.26;56.56;96784.75;5010004;28;20609;-70
2023/05/26 04:22:58;;;;;;;47.87;13.57;;;;;;;14.47;56.36;96785.41;5010039;28;20161;-70
2023/05/26 04:25:24;;;;;;;14.27;10.67;;;;;;;14.81;55.28;96784.47;5009809;28;20176;-71
2023/05/26 04:27:52;;;;;;;11.30;9.90;;;;;;;14.90;54.89;96785.75;5024042;28;20179;-71
2023/05/26 04:30:18;;;;;;;17.83;10.57;;;;;;;15.30;53.73;96783.53;5030663;28;20411;-71
2023/05/26 04:32:43;;;;;;;14.47;10.57;;;;;;;15.30;53.46;96787.97;5022844;28;20416;-70
2023/05/26 04:35:10;;;;;;;15.17;10.20;;;;;;;15.39;53.38;96784.81;5020854;28;20169;-71
2023/05/26 04:37:38;;;;;;;17.13;9.33;;;;;;;15.30;53.67;96780.03;5013389;28;20196;-70
2023/05/26 04:40:06;;;;;;;13.20;9.47;;;;;;;15.43;53.17;96781.06;5017850;28;20548;-71
2023/05/26 04:42:33;;;;;;;14.33;10.90;;;;;;;15.70;52.41;96778.63;5024099;28;20915;-70
2023/05/26 04:45:00;;;;;;;13.17;8.67;;;;;;;15.62;52.71;96775.56;5013593;28;20771;-70
2023/05/26 04:47:27;;;;;;;13.63;8.83;;;;;;;15.81;51.75;96781.50;5027907;28;20529;-70
2023/05/26 04:49:53;;;;;;;13.57;8.40;;;;;;;15.60;52.39;96774.78;5016208;28;20434;-70
2023/05/26 04:52:19;;;;;;;12.10;8.70;;;;;;;16.05;51.37;96778.34;5009653;28;20403;-70
2023/05/26 04:54:44;;;;;;;17.00;10.03;;;;;;;16.22;50.97;96775.53;5009263;28;20418;-71
2023/05/26 04:57:10;;;;;;;12.60;9.87;;;;;;;16.27;50.61;96776.09;5009404;28;20547;-71
2023/05/26 04:59:37;;;;;;;11.03;8.60;;;;;;;16.36;50.91;96772.03;5009355;28;20292;-70
2023/05/26 05:02:03;;;;;;;11.10;9.27;;;;;;;16.65;49.27;96772.91;5009486;28;20247;-70
2023/05/26 05:04:29;;;;;;;15.03;9.80;;;;;;;16.50;49.97;96771.19;5009028;28;20457;-70
2023/05/26 05:06:54;;;;;;;11.90;9.93;;;;;;;16.68;49.84;96778.00;5009287;28;20927;-71
2023/05/26 05:09:21;;;;;;;12.37;9.13;;;;;;;16.40;50.34;96788.59;5009508;28;20175;-71
2023/05/26 05:11:46;;;;;;;13.40;9.33;;;;;;;16.57;49.98;96780.47;5009338;28;20231;-71
2023/05/26 05:14:12;;;;;;;10.47;9.00;;;;;;;16.26;50.48;96785.00;5008763;28;20411;-71
2023/05/26 05:16:38;;;;;;;12.53;8.70;;;;;;;16.27;50.27;96785.84;5008918;28;20285;-71
2023/05/26 05:19:03;;;;;;;17.07;8.80;;;;;;;16.61;49.82;96786.44;5009695;28;20243;-70
2023/05/26 05:21:28;;;;;;;24.33;10.53;;;;;;;16.50;50.00;96787.94;5008901;28;20258;-70
2023/05/26 05:23:54;;;;;;;12.03;9.33;;;;;;;16.74;49.38;96787.38;5008911;28;20250;-71
2023/05/26 05:26:21;;;;;;;11.23;9.50;;;;;;;16.18;49.93;96789.91;5008761;28;20188;-71
2023/05/26 05:28:47;;;;;;;14.87;10.03;;;;;;;16.13;50.80;96785.81;5009083;28;20248;-70
2023/05/26 05:31:12;;;;;;;12.63;9.80;;;;;;;16.56;49.29;96791.16;5011293;28;20441;-70
2023/05/26 05:33:38;;;;;;;11.33;8.07;;;;;;;16.83;49.54;96796.56;5014114;28;20246;-72
2023/05/26 05:36:04;;;;;;;15.87;9.53;;;;;;;16.72;48.59;96792.78;5018446;28;20205;-70
2023/05/26 05:38:30;;;;;;;10.47;8.13;;;;;;;16.89;48.34;96798.81;5022199;28;20469;-72
2023/05/26 05:40:55;;;;;;;13.93;8.90;;;;;;;16.60;49.52;96801.47;5019738;28;20806;-71
2023/05/26 05:43:21;;;;;;;13.30;9.10;;;;;;;16.25;49.97;96807.13;5016412;28;20536;-71
2023/05/26 05:45:46;;;;;;;12.00;8.73;;;;;;;16.29;49.54;96800.69;5014054;28;20209;-70
2023/05/26 05:48:12;;;;;;;11.40;9.57;;;;;;;16.42;49.61;96802.63;5016908;28;20176;-70
2023/05/26 05:50:37;;;;;;;13.13;9.30;;;;;;;16.90;57.04;96806.69;5022682;28;20724;-72
2023/05/26 05:53:02;;;;;;;8.10;7.17;;;;;;;17.03;49.90;96809.44;5030121;28;20295;-70
2023/05/26 05:55:28;;;;;;;14.70;8.23;;;;;;;18.11;54.89;96807.75;5023787;28;20197;-70
2023/05/26 05:57:54;;;;;;;14.20;8.43;;;;;;;19.13;49.49;96797.09;5018890;28;20199;-70
2023/05/26 06:00:19;;;;;;;14.17;9.40;;;;;;;19.10;47.46;96799.13;5013475;28;20202;-70
2023/05/26 06:02:45;;;;;;;17.73;9.57;;;;;;;18.10;46.00;96811.38;5025292;28;20811;-70
2023/05/26 06:05:10;;;;;;;8.57;7.17;;;;;;;18.12;45.83;96807.66;5024641;28;20274;-70
2023/05/26 06:07:36;;;;;;;11.13;8.07;;;;;;;19.09;44.77;96806.28;5025026;28;21101;-70
2023/05/26 06:10:01;;;;;;;13.60;8.20;;;;;;;19.02;47.56;96805.00;5024591;28;20179;-71
2023/05/26 06:12:27;;;;;;;12.27;8.27;;;;;;;19.90;44.84;96794.16;5024746;28;20644;-70
2023/05/26 06:14:52;;;;;;;12.40;8.90;;;;;;;20.38;43.67;96795.88;5024179;28;20181;-71
2023/05/26 06:17:17;;;;;;;10.43;8.00;;;;;;;19.21;42.35;96805.38;5011914;28;20219;-68
2023/05/26 06:19:43;;;;;;;13.67;8.00;;;;;;;19.45;42.47;96802.75;5024968;28;20172;-67
2023/05/26 06:22:08;;;;;;;13.00;8.30;;;;;;;18.64;43.90;96805.88;5025466;28;20167;-68
2023/05/26 06:24:34;;;;;;;19.17;8.20;;;;;;;19.17;46.06;96803.06;5024840;28;20782;-69
2023/05/26 06:26:59;;;;;;;15.77;8.00;;;;;;;19.93;46.58;96801.91;5024631;28;20245;-67
2023/05/26 06:29:25;;;;;;;10.57;7.33;;;;;;;19.04;44.13;96809.25;5024678;28;20644;-70
2023/05/26 06:31:50;;;;;;;12.77;8.03;;;;;;;19.83;44.61;96809.75;5024341;28;20175;-69
2023/05/26 06:34:16;;;;;;;12.17;8.20;;;;;;;19.27;42.74;96811.22;5025545;28;20249;-68
2023/05/26 06:36:41;;;;;;;13.03;8.13;;;;;;;19.30;43.18;96811.00;5016692;28;20191;-68
2023/05/26 06:39:06;;;;;;;12.67;8.03;;;;;;;19.57;42.76;96806.31;5006562;28;21001;-68
2023/05/26 06:41:32;;;;;;;12.80;8.30;;;;;;;19.00;43.07;96814.91;5006613;28;20349;-68
2023/05/26 06:43:57;;;;;;;11.40;8.50;;;;;;;18.78;43.35;96824.41;5007995;28;20180;-68
2023/05/26 06:46:23;;;;;;;12.93;7.97;;;;;;;19.34;45.54;96815.97;5007932;28;20208;-68
2023/05/26 06:48:48;;;;;;;10.97;8.70;;;;;;;18.43;44.57;96825.97;5017088;28;20164;-68
2023/05/26 06:51:14;;;;;;;12.17;9.33;;;;;;;18.33;44.76;96823.94;5029094;28;20170;-71
2023/05/26 06:53:39;;;;;;;10.30;7.87;;;;;;;18.28;45.09;96830.50;5017945;28;20176;-69
2023/05/26 06:56:05;;;;;;;12.47;8.77;;;;;;;19.85;43.46;96809.63;5009468;28;20196;-70
2023/05/26 06:58:31;;;;;;;11.33;9.10;;;;;;;19.50;42.39;96815.72;5013081;28;20884;-70
2023/05/26 07:01:02;;;;;;;12.30;8.03;;;;;;;18.92;44.10;96819.91;5026062;28;20442;-71
2023/05/26 07:03:28;;;;;;;10.77;8.50;;;;;;;19.43;44.03;96812.66;5014465;28;21092;-70
2023/05/26 07:05:54;;;;;;;13.20;8.43;;;;;;;18.88;43.68;96811.31;5028365;28;20551;-71
2023/05/26 07:08:20;;;;;;;10.07;8.40;;;;;;;18.49;44.46;96814.91;5010938;28;20407;-70
2023/05/26 07:10:46;;;;;;;11.03;8.83;;;;;;;18.42;45.35;96819.78;5009040;28;20179;-70
2023/05/26 07:13:11;;;;;;;14.53;8.80;;;;;;;19.28;44.86;96807.63;5012250;28;20182;-71
2023/05/26 07:15:37;;;;;;;12.37;8.90;;;;;;;19.09;43.26;96816.91;5011503;28;20183;-70
2023/05/26 07:18:02;;;;;;;15.80;9.40;;;;;;;19.62;42.68;96808.66;5010778;28;20254;-70
2023/05/26 07:20:28;;;;;;;20.50;9.80;;;;;;;19.15;43.79;96813.78;5028068;28;20623;-70
2023/05/26 07:22:53;;;;;;;23.47;10.93;;;;;;;19.45;43.63;96813.41;5031072;28;20234;-70
2023/05/26 07:25:18;;;;;;;13.63;8.70;;;;;;;19.18;43.84;96821.56;5034916;28;20183;-71
2023/05/26 07:27:44;;;;;;;13.23;10.43;;;;;;;18.96;44.42;96826.72;5029433;28;20665;-72
2023/05/26 07:30:11;;;;;;;19.40;8.80;;;;;;;19.38;44.05;96816.63;5014220;28;20184;-70
2023/05/26 07:32:37;;;;;;;11.97;8.80;;;;;;;19.63;43.87;96816.53;5030464;28;20207;-71
2023/05/26 07:35:02;;;;;;;15.90;9.03;;;;;;;19.92;43.13;96826.03;5029854;28;20476;-71
2023/05/26 07:37:28;;;;;;;10.73;9.60;;;;;;;19.39;44.59;96821.84;5033512;28;20541;-72
2023/05/26 07:39:53;;;;;;;14.20;9.20;;;;;;;20.33;42.77;96814.88;5030223;28;20587;-70
2023/05/26 07:42:19;;;;;;;11.37;8.60;;;;;;;20.18;43.02;96816.91;5035861;28;20176;-71
2023/05/26 07:44:45;;;;;;;13.27;9.50;;;;;;;20.24;43.32;96819.09;5031053;28;20180;-69
2023/05/26 07:47:10;;;;;;;11.00;8.97;;;;;;;20.38;42.95;96819.84;5037625;28;20473;-71
2023/05/26 07:49:35;;;;;;;14.70;9.27;;;;;;;20.79;42.59;96816.69;5035701;28;20180;-70
2023/05/26 07:52:01;;;;;;;29.53;10.33;;;;;;;20.76;41.65;96822.25;5034246;28;20171;-72
2023/05/26 07:54:26;;;;;;;24.80;9.30;;;;;;;20.89;41.87;96815.00;5025331;28;20534;-70
2023/05/26 07:56:52;;;;;;;19.83;10.20;;;;;;;21.40;40.86;96810.13;5012474;28;20191;-68
2023/05/26 07:59:17;;;;;;;10.60;9.00;;;;;;;20.89;40.67;96817.66;5012079;28;20200;-70
2023/05/26 08:01:43;;;;;;;13.57;9.33;;;;;;;20.63;41.68;96819.69;5019521;28;20182;-69
2023/05/26 08:04:08;;;;;;;13.73;8.90;;;;;;;20.57;41.84;96812.16;5030953;28;20179;-71
2023/05/26 08:06:35;;;;;;;27.53;10.40;;;;;;;20.33;42.34;96824.69;5031128;28;20198;-71
2023/05/26 08:09:02;;;;;;;18.47;9.90;;;;;;;20.60;42.44;96821.75;5029974;28;20171;-70
2023/05/26 08:11:27;;;;;;;13.83;8.70;;;;;;;20.97;41.63;96810.88;5030422;28;20434;-71
2023/05/26 08:13:53;;;;;;;14.70;8.90;;;;;;;20.60;42.36;96813.75;5029083;28;20509;-70
2023/05/26 08:16:19;;;;;;;11.03;8.73;;;;;;;20.94;42.57;96804.78;5021390;28;20200;-70
2023/05/26 08:18:44;;;;;;;11.53;9.50;;;;;;;20.55;43.08;96808.75;5035216;28;20200;-69
2023/05/26 08:21:10;;;;;;;15.13;9.97;;;;;;;20.68;43.28;96812.19;5026566;28;21343;-70
2023/05/26 08:23:35;;;;;;;43.63;12.70;;;;;;;20.92;42.12;96812.06;5031075;28;20179;-74
2023/05/26 08:26:01;;;;;;;25.07;10.80;;;;;;;21.36;41.36;96804.16;5032749;28;20301;-73
2023/05/26 08:28:26;;;;;;;23.27;10.73;;;;;;;21.15;41.31;96810.25;5037454;28;20180;-70
2023/05/26 08:30:52;;;;;;;15.57;9.67;;;;;;;21.30;41.35;96804.66;5033695;28;20521;-71
2023/05/26 08:33:17;;;;;;;13.90;9.00;;;;;;;21.50;41.11;96803.06;5030281;28;20183;-71
2023/05/26 08:35:43;;;;;;;13.10;9.23;;;;;;;21.15;42.10;96807.56;5029224;28;20207;-71
2023/05/26 08:38:08;;;;;;;10.47;9.30;;;;;;;21.08;42.49;96808.19;5029143;28;20203;-71
2023/05/26 08:40:34;;;;;;;16.10;9.37;;;;;;;21.30;42.31;96800.16;5029128;28;20172;-71
2023/05/26 08:43:07;;;;;;;14.33;9.90;;;;;;;21.50;41.63;96798.56;5028962;28;21000;-70
2023/05/26 08:45:33;;;;;;;12.17;8.43;;;;;;;21.92;40.90;96801.38;5027858;28;20191;-70
2023/05/26 08:48:01;;;;;;;10.83;8.80;;;;;;;21.80;40.76;96805.03;5028773;28;20402;-70
2023/05/26 08:50:30;;;;;;;13.57;10.43;;;;;;;22.06;40.32;96802.84;5010062;28;20957;-71
2023/05/26 08:52:55;;;;;;;14.90;9.63;;;;;;;22.01;40.96;96805.06;5008487;28;20415;-71
2023/05/26 08:55:21;;;;;;;25.80;10.70;;;;;;;21.98;40.89;96802.66;5015050;28;20441;-72
2023/05/26 08:57:48;;;;;;;14.20;9.57;;;;;;;22.24;40.65;96791.63;5017964;28;20200;-72
2023/05/26 09:00:15;;;;;;;12.90;10.80;;;;;;;22.46;40.26;96798.66;5028401;28;20170;-70
2023/05/26 09:02:41;;;;;;;15.73;11.47;;;;;;;21.80;41.36;96807.69;5019093;28;20601;-71
2023/05/26 09:05:27;;;;;;;13.00;9.57;;;;;;;21.13;42.51;96801.50;5009082;28;20411;-69
2023/05/26 09:07:53;;;;;;;12.00;10.70;;;;;;;21.03;43.12;96805.06;4948561;28;20425;-69
2023/05/26 09:10:26;;;;;;;12.63;9.87;;;;;;;21.59;42.29;96804.13;4948148;28;20426;-70
2023/05/26 09:13:06;;;;;;;14.97;10.57;;;;;;;21.70;42.06;96801.44;4948014;28;20228;-69
2023/05/26 09:15:31;;;;;;;15.40;10.93;;;;;;;21.12;43.36;96801.66;4962577;28;21030;-69
2023/05/26 09:18:05;;;;;;;17.00;11.30;;;;;;;20.92;43.68;96812.06;4967157;28;20468;-69
2023/05/26 09:20:32;;;;;;;16.23;10.23;;;;;;;20.83;44.38;96806.63;4967891;28;20253;-69
2023/05/26 09:22:58;;;;;;;21.47;11.43;;;;;;;21.41;43.25;96790.47;4967306;28;20821;-69
2023/05/26 09:25:29;;;;;;;13.23;9.53;;;;;;;21.24;43.22;96800.66;4967200;28;20409;-69
2023/05/26 09:28:05;;;;;;;22.40;10.40;;;;;;;21.32;42.94;96805.38;4967484;28;20423;-71
2023/05/26 09:30:39;;;;;;;16.60;11.13;;;;;;;21.22;43.08;96799.94;4966785;28;20424;-69
2023/05/26 09:33:11;;;;;;;14.70;10.43;;;;;;;21.73;42.23;96796.69;4966872;28;20431;-68
2023/05/26 09:35:37;;;;;;;47.37;13.73;;;;;;;22.46;40.96;96793.31;4965452;28;20592;-70
2023/05/26 09:38:04;;;;;;;13.30;10.13;;;;;;;22.92;39.38;96797.38;4965169;28;20998;-69
2023/05/26 09:40:30;;;;;;;11.30;8.93;;;;;;;23.28;38.99;96785.28;4954148;28;20421;-69
2023/05/26 09:42:56;;;;;;;14.93;9.70;;;;;;;22.73;39.12;96792.78;4961300;28;20420;-69
2023/05/26 09:45:21;;;;;;;15.03;9.40;;;;;;;22.73;39.92;96792.78;4995239;28;20663;-69
2023/05/26 09:47:56;;;;;;;13.90;8.97;;;;;;;22.85;39.74;96788.19;5023984;28;20316;-68
2023/05/26 09:50:22;;;;;;;12.93;10.50;;;;;;;23.07;39.57;96790.69;5017168;28;20527;-69
2023/05/26 09:52:49;;;;;;;14.13;9.20;;;;;;;22.55;40.09;96800.56;5008478;28;20423;-68
2023/05/26 09:55:16;;;;;;;16.37;9.60;;;;;;;22.21;40.13;96794.59;5020537;28;20173;-69
2023/05/26 09:57:43;;;;;;;11.43;7.90;;;;;;;22.29;39.74;96787.59;5026085;28;20461;-71
2023/05/26 10:00:10;;;;;;;12.47;8.43;;;;;;;22.35;39.46;96794.25;5027755;28;20418;-69
2023/05/26 10:02:36;;;;;;;10.33;8.63;;;;;;;22.77;38.98;96791.50;5022462;28;20437;-69
2023/05/26 10:05:03;;;;;;;13.57;9.50;;;;;;;22.99;39.05;96790.53;5020852;28;20411;-69
2023/05/26 10:07:30;;;;;;;9.50;8.50;;;;;;;22.85;37.91;96789.03;5027260;28;20505;-69
2023/05/26 10:10:00;;;;;;;15.20;7.80;;;;;;;22.69;38.11;96780.66;5027441;28;20418;-69
2023/05/26 10:12:31;;;;;;;11.77;9.10;;;;;;;22.64;38.60;96788.22;5025597;28;20422;-69
2023/05/26 10:14:57;;;;;;;10.30;8.80;;;;;;;22.41;39.26;96786.53;5018675;28;21041;-69
2023/05/26 10:17:23;;;;;;;9.90;8.20;;;;;;;22.56;39.07;96784.38;5009466;28;20725;-70
2023/05/26 10:19:49;;;;;;;17.80;8.60;;;;;;;22.81;38.88;96776.91;5008264;28;20172;-69
2023/05/26 10:22:33;;;;;;;12.23;7.60;;;;;;;22.81;38.46;96776.91;5008228;28;20403;-68
2023/05/26 10:25:06;;;;;;;14.23;8.13;;;;;;;23.08;37.69;96773.66;5019586;28;20422;-70
2023/05/26 10:27:46;;;;;;;15.10;9.27;;;;;;;23.40;36.96;96783.31;5027096;28;20429;-70
2023/05/26 10:30:16;;;;;;;8.63;7.63;;;;;;;23.46;36.48;96782.78;5026679;28;20406;-69
2023/05/26 10:32:48;;;;;;;8.87;7.63;;;;;;;22.87;37.78;96781.72;5026633;28;20485;-69
2023/05/26 10:35:23;;;;;;;10.57;7.90;;;;;;;23.15;37.98;96776.63;5023900;28;20457;-68
2023/05/26 10:38:10;;;;;;;11.50;8.23;;;;;;;22.57;39.62;96788.75;5014892;28;20543;-69
2023/05/26 10:40:37;;;;;;;13.67;8.90;;;;;;;22.69;39.83;96784.16;5016260;28;20440;-69
2023/05/26 10:43:21;;;;;;;18.80;8.97;;;;;;;22.74;39.14;96789.97;5017919;28;20922;-68
2023/05/26 10:45:51;;;;;;;10.43;8.40;;;;;;;22.45;39.53;96778.28;5021222;28;20811;-69
2023/05/26 10:48:17;;;;;;;9.37;7.80;;;;;;;22.33;38.81;96781.00;5029954;28;20427;-70
2023/05/26 10:50:58;;;;;;;12.90;9.93;;;;;;;22.09;38.92;96786.59;5017703;28;20422;-68
2023/05/26 10:53:25;;;;;;;9.93;7.90;;;;;;;22.14;38.70;96773.66;5018101;28;20422;-69
2023/05/26 10:55:56;;;;;;;10.60;8.03;;;;;;;22.35;39.29;96778.22;5025604;28;20457;-68
2023/05/26 10:58:28;;;;;;;10.87;8.00;;;;;;;22.66;38.27;96772.91;5026034;28;20462;-69
2023/05/26 11:01:01;;;;;;;10.27;7.80;;;;;;;22.64;37.02;96773.03;5026593;28;20498;-69
2023/05/26 11:03:46;;;;;;;10.50;6.87;;;;;;;22.25;36.82;96761.25;5020731;28;20534;-68
2023/05/26 11:06:14;;;;;;;13.43;8.20;;;;;;;22.32;36.86;96757.94;5030920;28;20461;-70
2023/05/26 11:08:41;;;;;;;11.50;7.70;;;;;;;22.59;37.10;96762.72;5025293;28;20441;-70
2023/05/26 11:11:11;;;;;;;10.03;7.47;;;;;;;22.76;35.73;96763.91;5023397;28;20433;-70
2023/05/26 11:13:46;;;;;;;9.30;6.73;;;;;;;22.35;36.31;96762.16;5015332;28;20430;-69
2023/05/26 11:16:16;;;;;;;8.53;6.67;;;;;;;21.97;37.58;96767.09;5021586;28;21166;-70
2023/05/26 11:18:54;;;;;;;12.90;7.73;;;;;;;22.52;37.29;96756.22;5017445;28;20450;-69
2023/05/26 11:21:26;;;;;;;9.73;6.57;;;;;;;22.62;35.40;96765.13;5026405;28;20417;-69
2023/05/26 11:23:56;;;;;;;13.50;7.23;;;;;;;22.60;35.26;96759.03;5026388;28;21010;-69